<?xml version="1.0" encoding="UTF-8" standalone="no" ?>
<gpx xmlns="http://www.topografix.com/GPX/1/1" xmlns:xsi="http://www.w3.org/2001/XMLSchema-instance" xsi:schemaLocation="http://www.topografix.com/GPX/1/1 http://www.topografix.com/GPX/1/1/gpx.xsd" version="1.1" creator="VisuGPX - https://www.visugpx.com">
  <metadata>
    <name>Edirne-Zagreb</name>
  </metadata>
  <trk>
    <name><![CDATA[Tour d'Europe: étape 666]]></name>
    <extensions>
      <line xmlns="http://www.topografix.com/GPX/gpx_style/0/2">
        <color>FFFF00</color>
        <width>4</width>
      </line>
    </extensions>
    <trkseg>
      <trkpt lat="41.79015" lon="20.90829">
        <ele>580.190296</ele>
        <time>2022-04-25T08:00:54.991Z</time>
      </trkpt>
      <trkpt lat="41.78988" lon="20.90745">
        <ele>583.558874</ele>
        <time>2022-04-25T08:05:22.899Z</time>
      </trkpt>
      <trkpt lat="41.79034" lon="20.90459">
        <ele>589.015497</ele>
        <time>2022-04-25T08:07:12.898Z</time>
      </trkpt>
      <trkpt lat="41.7906" lon="20.90196">
        <ele>588.298198</ele>
        <time>2022-04-25T08:08:15.889Z</time>
      </trkpt>
      <trkpt lat="41.79138" lon="20.89986">
        <ele>583.848736</ele>
        <time>2022-04-25T08:09:19.902Z</time>
      </trkpt>
      <trkpt lat="41.79354" lon="20.89932">
        <ele>589.544953</ele>
        <time>2022-04-25T08:10:19.888Z</time>
      </trkpt>
      <trkpt lat="41.79506" lon="20.89844">
        <ele>595.626202</ele>
        <time>2022-04-25T08:11:39.893Z</time>
      </trkpt>
      <trkpt lat="41.79471" lon="20.89575">
        <ele>598.010857</ele>
        <time>2022-04-25T08:12:41.895Z</time>
      </trkpt>
      <trkpt lat="41.79458" lon="20.89298">
        <ele>599.797313</ele>
        <time>2022-04-25T08:13:46.908Z</time>
      </trkpt>
      <trkpt lat="41.79432" lon="20.8901">
        <ele>604.319813</ele>
        <time>2022-04-25T08:14:54.898Z</time>
      </trkpt>
      <trkpt lat="41.7941" lon="20.88741">
        <ele>602.27681</ele>
        <time>2022-04-25T08:15:57.877Z</time>
      </trkpt>
      <trkpt lat="41.79433" lon="20.88509">
        <ele>594.157383</ele>
        <time>2022-04-25T08:17:00.917Z</time>
      </trkpt>
      <trkpt lat="41.79337" lon="20.88272">
        <ele>597.500896</ele>
        <time>2022-04-25T08:18:05.919Z</time>
      </trkpt>
      <trkpt lat="41.79192" lon="20.88071">
        <ele>600.110258</ele>
        <time>2022-04-25T08:19:16.891Z</time>
      </trkpt>
      <trkpt lat="41.79006" lon="20.87968">
        <ele>602.891233</ele>
        <time>2022-04-25T08:20:20.910Z</time>
      </trkpt>
      <trkpt lat="41.78882" lon="20.8775">
        <ele>607.553017</ele>
        <time>2022-04-25T08:21:38.914Z</time>
      </trkpt>
      <trkpt lat="41.78729" lon="20.87562">
        <ele>612.408649</ele>
        <time>2022-04-25T08:22:55.903Z</time>
      </trkpt>
      <trkpt lat="41.78576" lon="20.87379">
        <ele>618.094606</ele>
        <time>2022-04-25T08:24:15.938Z</time>
      </trkpt>
      <trkpt lat="41.78403" lon="20.87245">
        <ele>621.837581</ele>
        <time>2022-04-25T08:25:36.926Z</time>
      </trkpt>
      <trkpt lat="41.78231" lon="20.87097">
        <ele>631.600759</ele>
        <time>2022-04-25T08:26:54.918Z</time>
      </trkpt>
      <trkpt lat="41.7805" lon="20.86945">
        <ele>635.306737</ele>
        <time>2022-04-25T08:28:14.895Z</time>
      </trkpt>
      <trkpt lat="41.77916" lon="20.86746">
        <ele>637.735021</ele>
        <time>2022-04-25T08:29:38.898Z</time>
      </trkpt>
      <trkpt lat="41.77775" lon="20.86555">
        <ele>648.023285</ele>
        <time>2022-04-25T08:31:11.903Z</time>
      </trkpt>
      <trkpt lat="41.77619" lon="20.86405">
        <ele>653.108907</ele>
        <time>2022-04-25T08:32:55.909Z</time>
      </trkpt>
      <trkpt lat="41.77457" lon="20.86261">
        <ele>658.714263</ele>
        <time>2022-04-25T08:34:43.899Z</time>
      </trkpt>
      <trkpt lat="41.7727" lon="20.86181">
        <ele>667.507766</ele>
        <time>2022-04-25T08:36:42.884Z</time>
      </trkpt>
      <trkpt lat="41.77107" lon="20.86068">
        <ele>675.540798</ele>
        <time>2022-04-25T08:38:45.899Z</time>
      </trkpt>
      <trkpt lat="41.77038" lon="20.85836">
        <ele>685.099006</ele>
        <time>2022-04-25T08:40:54.904Z</time>
      </trkpt>
      <trkpt lat="41.76856" lon="20.85773">
        <ele>694.147807</ele>
        <time>2022-04-25T08:43:04.902Z</time>
      </trkpt>
      <trkpt lat="41.7672" lon="20.85584">
        <ele>707.574698</ele>
        <time>2022-04-25T08:50:43.891Z</time>
      </trkpt>
      <trkpt lat="41.76581" lon="20.85404">
        <ele>717.537093</ele>
        <time>2022-04-25T08:52:52.929Z</time>
      </trkpt>
      <trkpt lat="41.76394" lon="20.85361">
        <ele>729.305824</ele>
        <time>2022-04-25T08:55:01.867Z</time>
      </trkpt>
      <trkpt lat="41.76266" lon="20.85171">
        <ele>738.974103</ele>
        <time>2022-04-25T08:57:08.882Z</time>
      </trkpt>
      <trkpt lat="41.76143" lon="20.84974">
        <ele>752.729366</ele>
        <time>2022-04-25T08:59:21.867Z</time>
      </trkpt>
      <trkpt lat="41.75962" lon="20.85023">
        <ele>767.134265</ele>
        <time>2022-04-25T09:01:34.890Z</time>
      </trkpt>
      <trkpt lat="41.75805" lon="20.84874">
        <ele>776.852909</ele>
        <time>2022-04-25T09:03:48.872Z</time>
      </trkpt>
      <trkpt lat="41.75623" lon="20.84794">
        <ele>785.641456</ele>
        <time>2022-04-25T09:06:04.890Z</time>
      </trkpt>
      <trkpt lat="41.7554" lon="20.84577">
        <ele>795.787359</ele>
        <time>2022-04-25T09:08:18.880Z</time>
      </trkpt>
      <trkpt lat="41.75412" lon="20.84389">
        <ele>807.067067</ele>
        <time>2022-04-25T09:10:34.877Z</time>
      </trkpt>
      <trkpt lat="41.75221" lon="20.84334">
        <ele>818.426667</ele>
        <time>2022-04-25T09:12:49.875Z</time>
      </trkpt>
      <trkpt lat="41.75145" lon="20.84114">
        <ele>829.000507</ele>
        <time>2022-04-25T09:15:04.878Z</time>
      </trkpt>
      <trkpt lat="41.75026" lon="20.83919">
        <ele>842.962137</ele>
        <time>2022-04-25T09:17:19.869Z</time>
      </trkpt>
      <trkpt lat="41.74842" lon="20.83912">
        <ele>856.268868</ele>
        <time>2022-04-25T09:19:35.865Z</time>
      </trkpt>
      <trkpt lat="41.74698" lon="20.83738">
        <ele>862.56148</ele>
        <time>2022-04-25T09:21:57.872Z</time>
      </trkpt>
      <trkpt lat="41.74549" lon="20.83594">
        <ele>870.611543</ele>
        <time>2022-04-25T09:24:12.891Z</time>
      </trkpt>
      <trkpt lat="41.74364" lon="20.83528">
        <ele>882.781742</ele>
        <time>2022-04-25T09:26:22.886Z</time>
      </trkpt>
      <trkpt lat="41.74188" lon="20.83433">
        <ele>896.06136</ele>
        <time>2022-04-25T09:28:36.886Z</time>
      </trkpt>
      <trkpt lat="41.74024" lon="20.83562">
        <ele>911.663961</ele>
        <time>2022-04-25T09:30:59.912Z</time>
      </trkpt>
      <trkpt lat="41.73847" lon="20.83635">
        <ele>924.277361</ele>
        <time>2022-04-25T09:33:37.900Z</time>
      </trkpt>
      <trkpt lat="41.73665" lon="20.8371">
        <ele>935.395013</ele>
        <time>2022-04-25T09:36:26.900Z</time>
      </trkpt>
      <trkpt lat="41.73539" lon="20.83527">
        <ele>935.675354</ele>
        <time>2022-04-25T09:48:36.870Z</time>
      </trkpt>
      <trkpt lat="41.73371" lon="20.8325">
        <ele>923.382194</ele>
        <time>2022-04-25T09:49:16.863Z</time>
      </trkpt>
      <trkpt lat="41.73299" lon="20.83423">
        <ele>931.267192</ele>
        <time>2022-04-25T09:50:54.866Z</time>
      </trkpt>
      <trkpt lat="41.73265" lon="20.83666">
        <ele>948.339519</ele>
        <time>2022-04-25T09:53:20.877Z</time>
      </trkpt>
      <trkpt lat="41.73201" lon="20.83892">
        <ele>959.244893</ele>
        <time>2022-04-25T09:55:41.865Z</time>
      </trkpt>
      <trkpt lat="41.73072" lon="20.83952">
        <ele>967.280166</ele>
        <time>2022-04-25T09:58:07.866Z</time>
      </trkpt>
      <trkpt lat="41.72936" lon="20.83941">
        <ele>984.367886</ele>
        <time>2022-04-25T10:00:40.876Z</time>
      </trkpt>
      <trkpt lat="41.72865" lon="20.84136">
        <ele>998.847848</ele>
        <time>2022-04-25T10:03:02.868Z</time>
      </trkpt>
      <trkpt lat="41.72716" lon="20.84069">
        <ele>1013.202879</ele>
        <time>2022-04-25T10:05:24.859Z</time>
      </trkpt>
      <trkpt lat="41.72829" lon="20.83954">
        <ele>1032.076095</ele>
        <time>2022-04-25T10:07:54.882Z</time>
      </trkpt>
      <trkpt lat="41.72719" lon="20.83752">
        <ele>1045.721154</ele>
        <time>2022-04-25T10:10:24.886Z</time>
      </trkpt>
      <trkpt lat="41.72836" lon="20.83578">
        <ele>1056.493451</ele>
        <time>2022-04-25T10:13:03.876Z</time>
      </trkpt>
      <trkpt lat="41.72735" lon="20.83381">
        <ele>1071.766563</ele>
        <time>2022-04-25T10:15:43.939Z</time>
      </trkpt>
      <trkpt lat="41.7264" lon="20.83173">
        <ele>1080.251585</ele>
        <time>2022-04-25T10:18:22.903Z</time>
      </trkpt>
      <trkpt lat="41.72683" lon="20.82941">
        <ele>1091.613286</ele>
        <time>2022-04-25T10:21:04.897Z</time>
      </trkpt>
      <trkpt lat="41.72699" lon="20.82732">
        <ele>1107.96394</ele>
        <time>2022-04-25T10:23:55.885Z</time>
      </trkpt>
      <trkpt lat="41.72627" lon="20.82523">
        <ele>1122.741626</ele>
        <time>2022-04-25T10:26:45.881Z</time>
      </trkpt>
      <trkpt lat="41.72662" lon="20.82275">
        <ele>1136.624851</ele>
        <time>2022-04-25T10:56:11.896Z</time>
      </trkpt>
      <trkpt lat="41.72637" lon="20.82056">
        <ele>1153.449754</ele>
        <time>2022-04-25T10:58:50.902Z</time>
      </trkpt>
      <trkpt lat="41.72718" lon="20.81828">
        <ele>1166.055168</ele>
        <time>2022-04-25T11:01:31.887Z</time>
      </trkpt>
      <trkpt lat="41.7272" lon="20.81577">
        <ele>1177.934098</ele>
        <time>2022-04-25T11:04:10.883Z</time>
      </trkpt>
      <trkpt lat="41.72809" lon="20.81371">
        <ele>1182.133459</ele>
        <time>2022-04-25T11:06:41.869Z</time>
      </trkpt>
      <trkpt lat="41.72926" lon="20.81183">
        <ele>1194.978689</ele>
        <time>2022-04-25T11:09:14.882Z</time>
      </trkpt>
      <trkpt lat="41.73085" lon="20.81057">
        <ele>1203.655672</ele>
        <time>2022-04-25T11:11:42.912Z</time>
      </trkpt>
      <trkpt lat="41.7325" lon="20.81105">
        <ele>1215.637267</ele>
        <time>2022-04-25T11:14:22.887Z</time>
      </trkpt>
      <trkpt lat="41.73368" lon="20.80982">
        <ele>1221.795436</ele>
        <time>2022-04-25T11:16:50.886Z</time>
      </trkpt>
      <trkpt lat="41.73404" lon="20.80732">
        <ele>1232.438855</ele>
        <time>2022-04-25T11:19:24.881Z</time>
      </trkpt>
      <trkpt lat="41.73405" lon="20.80478">
        <ele>1245.277195</ele>
        <time>2022-04-25T11:35:04.893Z</time>
      </trkpt>
      <trkpt lat="41.73436" lon="20.80229">
        <ele>1253.79534</ele>
        <time>2022-04-25T11:37:28.897Z</time>
      </trkpt>
      <trkpt lat="41.73416" lon="20.79973">
        <ele>1264.066361</ele>
        <time>2022-04-25T11:40:12.884Z</time>
      </trkpt>
      <trkpt lat="41.73303" lon="20.79804">
        <ele>1277.989369</ele>
        <time>2022-04-25T11:42:42.878Z</time>
      </trkpt>
      <trkpt lat="41.73286" lon="20.79565">
        <ele>1297.887996</ele>
        <time>2022-04-25T11:45:23.874Z</time>
      </trkpt>
      <trkpt lat="41.73267" lon="20.7932">
        <ele>1315.047924</ele>
        <time>2022-04-25T11:48:13.890Z</time>
      </trkpt>
      <trkpt lat="41.73225" lon="20.79075">
        <ele>1323.260977</ele>
        <time>2022-04-25T11:50:47.908Z</time>
      </trkpt>
      <trkpt lat="41.73086" lon="20.789">
        <ele>1340.313442</ele>
        <time>2022-04-25T12:00:35.850Z</time>
      </trkpt>
      <trkpt lat="41.73044" lon="20.78646">
        <ele>1345.945874</ele>
        <time>2022-04-25T12:02:22.889Z</time>
      </trkpt>
      <trkpt lat="41.73037" lon="20.78387">
        <ele>1346.505284</ele>
        <time>2022-04-25T12:03:56.854Z</time>
      </trkpt>
      <trkpt lat="41.7291" lon="20.78482">
        <ele>1350.327109</ele>
        <time>2022-04-25T12:08:32.849Z</time>
      </trkpt>
      <trkpt lat="41.72746" lon="20.78417">
        <ele>1365.693693</ele>
        <time>2022-04-25T12:11:10.869Z</time>
      </trkpt>
      <trkpt lat="41.72617" lon="20.7825">
        <ele>1366.252242</ele>
        <time>2022-04-25T12:13:12.864Z</time>
      </trkpt>
      <trkpt lat="41.72648" lon="20.77931">
        <ele>1353.827802</ele>
        <time>2022-04-25T12:13:52.844Z</time>
      </trkpt>
      <trkpt lat="41.72506" lon="20.77718">
        <ele>1344.901239</ele>
        <time>2022-04-25T12:14:48.849Z</time>
      </trkpt>
      <trkpt lat="41.72493" lon="20.77461">
        <ele>1348.915205</ele>
        <time>2022-04-25T12:15:46.864Z</time>
      </trkpt>
      <trkpt lat="41.72299" lon="20.77381">
        <ele>1346.781968</ele>
        <time>2022-04-25T12:16:29.848Z</time>
      </trkpt>
      <trkpt lat="41.72099" lon="20.7727">
        <ele>1336.338034</ele>
        <time>2022-04-25T12:17:14.846Z</time>
      </trkpt>
      <trkpt lat="41.71919" lon="20.77118">
        <ele>1340.055189</ele>
        <time>2022-04-25T12:36:05.984Z</time>
      </trkpt>
      <trkpt lat="41.71721" lon="20.77021">
        <ele>1340.273012</ele>
        <time>2022-04-25T12:36:51.878Z</time>
      </trkpt>
      <trkpt lat="41.71672" lon="20.76747">
        <ele>1333.721138</ele>
        <time>2022-04-25T12:37:36.868Z</time>
      </trkpt>
      <trkpt lat="41.71456" lon="20.76608">
        <ele>1333.582631</ele>
        <time>2022-04-25T12:38:35.881Z</time>
      </trkpt>
      <trkpt lat="41.71276" lon="20.7674">
        <ele>1335.662746</ele>
        <time>2022-04-25T12:39:18.884Z</time>
      </trkpt>
      <trkpt lat="41.71152" lon="20.76538">
        <ele>1320.0314</ele>
        <time>2022-04-25T12:40:03.874Z</time>
      </trkpt>
      <trkpt lat="41.7099" lon="20.76376">
        <ele>1319.538054</ele>
        <time>2022-04-25T12:40:51.876Z</time>
      </trkpt>
      <trkpt lat="41.70775" lon="20.7626">
        <ele>1314.381228</ele>
        <time>2022-04-25T12:41:31.885Z</time>
      </trkpt>
      <trkpt lat="41.70567" lon="20.76158">
        <ele>1311.763801</ele>
        <time>2022-04-25T12:42:15.867Z</time>
      </trkpt>
      <trkpt lat="41.70364" lon="20.76062">
        <ele>1308.11446</ele>
        <time>2022-04-25T12:42:58.890Z</time>
      </trkpt>
      <trkpt lat="41.70275" lon="20.75815">
        <ele>1302.87035</ele>
        <time>2022-04-25T12:44:06.878Z</time>
      </trkpt>
      <trkpt lat="41.70093" lon="20.75651">
        <ele>1299.196588</ele>
        <time>2022-04-25T12:45:01.876Z</time>
      </trkpt>
      <trkpt lat="41.69946" lon="20.75459">
        <ele>1293.443955</ele>
        <time>2022-04-25T12:45:44.865Z</time>
      </trkpt>
      <trkpt lat="41.6985" lon="20.75242">
        <ele>1288.278428</ele>
        <time>2022-04-25T12:46:24.878Z</time>
      </trkpt>
      <trkpt lat="41.69782" lon="20.74969">
        <ele>1285.39549</ele>
        <time>2022-04-25T12:47:08.886Z</time>
      </trkpt>
      <trkpt lat="41.69765" lon="20.74696">
        <ele>1285.95949</ele>
        <time>2022-04-25T12:47:58.877Z</time>
      </trkpt>
      <trkpt lat="41.69732" lon="20.7467">
        <ele>1282.391285</ele>
        <time>2022-04-25T12:55:16.930Z</time>
      </trkpt>
      <trkpt lat="41.69822" lon="20.7444">
        <ele>1279.805327</ele>
        <time>2022-04-25T12:56:11.878Z</time>
      </trkpt>
      <trkpt lat="41.70016" lon="20.74116">
        <ele>1257.815643</ele>
        <time>2022-04-25T12:56:51.878Z</time>
      </trkpt>
      <trkpt lat="41.70078" lon="20.7379">
        <ele>1244.556433</ele>
        <time>2022-04-25T12:57:22.892Z</time>
      </trkpt>
      <trkpt lat="41.70119" lon="20.73432">
        <ele>1223.391733</ele>
        <time>2022-04-25T12:57:57.869Z</time>
      </trkpt>
      <trkpt lat="41.70279" lon="20.73244">
        <ele>1212.567124</ele>
        <time>2022-04-25T12:58:40.878Z</time>
      </trkpt>
      <trkpt lat="41.70496" lon="20.73175">
        <ele>1221.530129</ele>
        <time>2022-04-25T12:59:33.893Z</time>
      </trkpt>
      <trkpt lat="41.70663" lon="20.7298">
        <ele>1214.085459</ele>
        <time>2022-04-25T13:00:23.869Z</time>
      </trkpt>
      <trkpt lat="41.70803" lon="20.72775">
        <ele>1202.935125</ele>
        <time>2022-04-25T13:01:05.877Z</time>
      </trkpt>
      <trkpt lat="41.70959" lon="20.72467">
        <ele>1189.020027</ele>
        <time>2022-04-25T13:01:45.875Z</time>
      </trkpt>
      <trkpt lat="41.71023" lon="20.72161">
        <ele>1178.179765</ele>
        <time>2022-04-25T13:02:25.876Z</time>
      </trkpt>
      <trkpt lat="41.7109" lon="20.71828">
        <ele>1166.922481</ele>
        <time>2022-04-25T13:03:00.886Z</time>
      </trkpt>
      <trkpt lat="41.71102" lon="20.71494">
        <ele>1156.339921</ele>
        <time>2022-04-25T13:03:36.877Z</time>
      </trkpt>
      <trkpt lat="41.71179" lon="20.71208">
        <ele>1151.235035</ele>
        <time>2022-04-25T13:04:16.885Z</time>
      </trkpt>
      <trkpt lat="41.7122" lon="20.7093">
        <ele>1140.443668</ele>
        <time>2022-04-25T13:04:58.903Z</time>
      </trkpt>
      <trkpt lat="41.71125" lon="20.7058">
        <ele>1108.594697</ele>
        <time>2022-04-25T13:05:38.870Z</time>
      </trkpt>
      <trkpt lat="41.71126" lon="20.70285">
        <ele>1094.257058</ele>
        <time>2022-04-25T13:06:18.866Z</time>
      </trkpt>
      <trkpt lat="41.71134" lon="20.69968">
        <ele>1093.368689</ele>
        <time>2022-04-25T13:07:03.874Z</time>
      </trkpt>
      <trkpt lat="41.71114" lon="20.69632">
        <ele>1083.691724</ele>
        <time>2022-04-25T13:07:43.917Z</time>
      </trkpt>
      <trkpt lat="41.71097" lon="20.69292">
        <ele>1069.33197</ele>
        <time>2022-04-25T13:10:09.881Z</time>
      </trkpt>
      <trkpt lat="41.71155" lon="20.68989">
        <ele>1049.94163</ele>
        <time>2022-04-25T13:10:50.903Z</time>
      </trkpt>
      <trkpt lat="41.71021" lon="20.68786">
        <ele>1034.728568</ele>
        <time>2022-04-25T13:11:31.896Z</time>
      </trkpt>
      <trkpt lat="41.71238" lon="20.68607">
        <ele>1017.664379</ele>
        <time>2022-04-25T13:12:18.884Z</time>
      </trkpt>
      <trkpt lat="41.71355" lon="20.68331">
        <ele>1007.961133</ele>
        <time>2022-04-25T13:12:46.886Z</time>
      </trkpt>
      <trkpt lat="41.71483" lon="20.68052">
        <ele>997.569305</ele>
        <time>2022-04-25T13:13:16.884Z</time>
      </trkpt>
      <trkpt lat="41.71629" lon="20.67814">
        <ele>986.430581</ele>
        <time>2022-04-25T13:13:54.885Z</time>
      </trkpt>
      <trkpt lat="41.71795" lon="20.67531">
        <ele>979.824234</ele>
        <time>2022-04-25T13:14:34.872Z</time>
      </trkpt>
      <trkpt lat="41.71873" lon="20.67177">
        <ele>972.640776</ele>
        <time>2022-04-25T13:15:14.867Z</time>
      </trkpt>
      <trkpt lat="41.72004" lon="20.66856">
        <ele>952.922235</ele>
        <time>2022-04-25T13:15:47.886Z</time>
      </trkpt>
      <trkpt lat="41.72025" lon="20.66548">
        <ele>936.165061</ele>
        <time>2022-04-25T13:16:35.888Z</time>
      </trkpt>
      <trkpt lat="41.71961" lon="20.66309">
        <ele>946.477175</ele>
        <time>2022-04-25T13:17:16.942Z</time>
      </trkpt>
      <trkpt lat="41.71807" lon="20.6612">
        <ele>951.406962</ele>
        <time>2022-04-25T13:18:09.889Z</time>
      </trkpt>
      <trkpt lat="41.71661" lon="20.65933">
        <ele>944.198181</ele>
        <time>2022-04-25T13:18:52.870Z</time>
      </trkpt>
      <trkpt lat="41.71422" lon="20.65803">
        <ele>926.443906</ele>
        <time>2022-04-25T13:19:30.900Z</time>
      </trkpt>
      <trkpt lat="41.71168" lon="20.65784">
        <ele>914.035946</ele>
        <time>2022-04-25T13:20:10.910Z</time>
      </trkpt>
      <trkpt lat="41.70987" lon="20.65594">
        <ele>912.910343</ele>
        <time>2022-04-25T13:20:51.909Z</time>
      </trkpt>
      <trkpt lat="41.70844" lon="20.6543">
        <ele>910.393388</ele>
        <time>2022-04-25T13:21:33.861Z</time>
      </trkpt>
      <trkpt lat="41.70776" lon="20.65174">
        <ele>907.007064</ele>
        <time>2022-04-25T13:22:20.866Z</time>
      </trkpt>
      <trkpt lat="41.70614" lon="20.65004">
        <ele>898.439859</ele>
        <time>2022-04-25T13:23:33.879Z</time>
      </trkpt>
      <trkpt lat="41.70393" lon="20.65049">
        <ele>898.409778</ele>
        <time>2022-04-25T13:24:03.893Z</time>
      </trkpt>
      <trkpt lat="41.70165" lon="20.64829">
        <ele>905.039679</ele>
        <time>2022-04-25T13:24:38.884Z</time>
      </trkpt>
      <trkpt lat="41.69936" lon="20.64768">
        <ele>903.503606</ele>
        <time>2022-04-25T13:25:25.885Z</time>
      </trkpt>
      <trkpt lat="41.69732" lon="20.64704">
        <ele>915.833027</ele>
        <time>2022-04-25T13:26:08.925Z</time>
      </trkpt>
      <trkpt lat="41.69513" lon="20.64712">
        <ele>907.846724</ele>
        <time>2022-04-25T13:26:58.868Z</time>
      </trkpt>
      <trkpt lat="41.6928" lon="20.64812">
        <ele>895.801164</ele>
        <time>2022-04-25T13:27:37.901Z</time>
      </trkpt>
      <trkpt lat="41.69078" lon="20.64904">
        <ele>891.596114</ele>
        <time>2022-04-25T13:28:28.920Z</time>
      </trkpt>
      <trkpt lat="41.68858" lon="20.64915">
        <ele>890.025772</ele>
        <time>2022-04-25T13:29:09.887Z</time>
      </trkpt>
      <trkpt lat="41.68603" lon="20.64885">
        <ele>890.134416</ele>
        <time>2022-04-25T13:29:49.914Z</time>
      </trkpt>
      <trkpt lat="41.68353" lon="20.64811">
        <ele>886.211303</ele>
        <time>2022-04-25T13:30:32.887Z</time>
      </trkpt>
      <trkpt lat="41.68132" lon="20.64776">
        <ele>886.262436</ele>
        <time>2022-04-25T13:31:29.883Z</time>
      </trkpt>
      <trkpt lat="41.67927" lon="20.64636">
        <ele>883.502148</ele>
        <time>2022-04-25T13:32:04.866Z</time>
      </trkpt>
      <trkpt lat="41.67707" lon="20.64505">
        <ele>876.52443</ele>
        <time>2022-04-25T13:32:43.873Z</time>
      </trkpt>
      <trkpt lat="41.67504" lon="20.64437">
        <ele>876.681913</ele>
        <time>2022-04-25T13:33:05.868Z</time>
      </trkpt>
      <trkpt lat="41.6731" lon="20.64197">
        <ele>862.228146</ele>
        <time>2022-04-25T13:33:45.864Z</time>
      </trkpt>
      <trkpt lat="41.67073" lon="20.6414">
        <ele>865.196274</ele>
        <time>2022-04-25T13:34:25.874Z</time>
      </trkpt>
      <trkpt lat="41.66958" lon="20.63845">
        <ele>869.724013</ele>
        <time>2022-04-25T13:35:05.886Z</time>
      </trkpt>
      <trkpt lat="41.66813" lon="20.63637">
        <ele>857.699091</ele>
        <time>2022-04-25T13:35:45.932Z</time>
      </trkpt>
      <trkpt lat="41.66713" lon="20.63377">
        <ele>838.840243</ele>
        <time>2022-04-25T13:36:25.867Z</time>
      </trkpt>
      <trkpt lat="41.66693" lon="20.6308">
        <ele>824.388019</ele>
        <time>2022-04-25T13:36:47.879Z</time>
      </trkpt>
      <trkpt lat="41.66647" lon="20.62683">
        <ele>815.342572</ele>
        <time>2022-04-25T13:37:24.883Z</time>
      </trkpt>
      <trkpt lat="41.66591" lon="20.62383">
        <ele>822.357923</ele>
        <time>2022-04-25T13:38:12.921Z</time>
      </trkpt>
      <trkpt lat="41.6648" lon="20.62116">
        <ele>822.789169</ele>
        <time>2022-04-25T13:38:53.863Z</time>
      </trkpt>
      <trkpt lat="41.6656" lon="20.61827">
        <ele>817.241504</ele>
        <time>2022-04-25T13:39:38.874Z</time>
      </trkpt>
      <trkpt lat="41.66641" lon="20.61567">
        <ele>821.662018</ele>
        <time>2022-04-25T13:40:25.878Z</time>
      </trkpt>
      <trkpt lat="41.66783" lon="20.61292">
        <ele>815.023252</ele>
        <time>2022-04-25T13:41:05.894Z</time>
      </trkpt>
      <trkpt lat="41.66792" lon="20.60989">
        <ele>811.196099</ele>
        <time>2022-04-25T13:41:52.907Z</time>
      </trkpt>
      <trkpt lat="41.66689" lon="20.60722">
        <ele>816.3198</ele>
        <time>2022-04-25T13:42:55.926Z</time>
      </trkpt>
      <trkpt lat="41.66634" lon="20.60434">
        <ele>801.40636</ele>
        <time>2022-04-25T13:43:46.894Z</time>
      </trkpt>
      <trkpt lat="41.66551" lon="20.60161">
        <ele>795.378879</ele>
        <time>2022-04-25T13:44:26.886Z</time>
      </trkpt>
      <trkpt lat="41.66374" lon="20.59982">
        <ele>801.649303</ele>
        <time>2022-04-25T13:45:13.925Z</time>
      </trkpt>
      <trkpt lat="41.6614" lon="20.60006">
        <ele>800.391787</ele>
        <time>2022-04-25T13:45:56.898Z</time>
      </trkpt>
      <trkpt lat="41.65878" lon="20.59967">
        <ele>793.479955</ele>
        <time>2022-04-25T13:46:36.885Z</time>
      </trkpt>
      <trkpt lat="41.65645" lon="20.59993">
        <ele>783.025915</ele>
        <time>2022-04-25T13:47:16.860Z</time>
      </trkpt>
      <trkpt lat="41.6536" lon="20.60006">
        <ele>771.983527</ele>
        <time>2022-04-25T13:47:56.873Z</time>
      </trkpt>
      <trkpt lat="41.65157" lon="20.60061">
        <ele>767.903058</ele>
        <time>2022-04-25T13:48:38.857Z</time>
      </trkpt>
      <trkpt lat="41.64928" lon="20.60145">
        <ele>770.104392</ele>
        <time>2022-04-25T13:49:21.885Z</time>
      </trkpt>
      <trkpt lat="41.64705" lon="20.60145">
        <ele>774.120676</ele>
        <time>2022-04-25T13:50:04.892Z</time>
      </trkpt>
      <trkpt lat="41.64495" lon="20.60086">
        <ele>780.595022</ele>
        <time>2022-04-25T13:50:52.915Z</time>
      </trkpt>
      <trkpt lat="41.64296" lon="20.60166">
        <ele>783.798056</ele>
        <time>2022-04-25T13:51:58.899Z</time>
      </trkpt>
      <trkpt lat="41.64049" lon="20.60277">
        <ele>774.344298</ele>
        <time>2022-04-25T13:52:38.891Z</time>
      </trkpt>
      <trkpt lat="41.63818" lon="20.60282">
        <ele>766.766281</ele>
        <time>2022-04-25T13:53:22.885Z</time>
      </trkpt>
      <trkpt lat="41.63648" lon="20.60374">
        <ele>764.38522</ele>
        <time>2022-04-25T13:54:02.892Z</time>
      </trkpt>
      <trkpt lat="41.63434" lon="20.60615">
        <ele>759.748206</ele>
        <time>2022-04-25T13:54:42.884Z</time>
      </trkpt>
      <trkpt lat="41.63218" lon="20.60695">
        <ele>759.524881</ele>
        <time>2022-04-25T13:55:22.910Z</time>
      </trkpt>
      <trkpt lat="41.63001" lon="20.60674">
        <ele>751.670958</ele>
        <time>2022-04-25T13:56:10.882Z</time>
      </trkpt>
      <trkpt lat="41.62788" lon="20.60714">
        <ele>745.991427</ele>
        <time>2022-04-25T13:57:03.871Z</time>
      </trkpt>
      <trkpt lat="41.62556" lon="20.60778">
        <ele>740.097525</ele>
        <time>2022-04-25T13:57:31.893Z</time>
      </trkpt>
      <trkpt lat="41.62348" lon="20.60664">
        <ele>732.022357</ele>
        <time>2022-04-25T13:58:02.907Z</time>
      </trkpt>
      <trkpt lat="41.62256" lon="20.60719">
        <ele>732.022357</ele>
        <time>2022-04-25T14:01:29.802Z</time>
      </trkpt>
    </trkseg>
  </trk>
</gpx>